Time;durP1;ratioP1;P1;durP2;ratioP2;P2;SDS_P1;SDS_P2;PMS_P1;PMS_P2;Temp;Humidity;BMP_temperature;BMP_pressure;BME280_temperature;BME280_humidity;BME280_pressure;Samples;Min_cycle;Max_cycle;Signal;HPM_P1;HPM_P2
2021/05/12 00:00:20;;;;;;;13.77;12.48;;;;;;;;;;5035866;28;20235;-83
2021/05/12 00:02:47;;;;;;;14.23;12.82;;;;;;;;;;5035156;28;20622;-83
2021/05/12 00:05:15;;;;;;;14.32;12.90;;;;;;;;;;5035538;28;20225;-84
2021/05/12 00:07:43;;;;;;;12.27;11.10;;;;;;;;;;5036366;28;20210;-83
2021/05/12 00:10:11;;;;;;;13.30;12.00;;;;;;;;;;5036544;28;20226;-83
2021/05/12 00:12:40;;;;;;;14.82;13.10;;;;;;;;;;5035497;28;20215;-83
2021/05/12 00:15:10;;;;;;;13.30;11.85;;;;;;;;;;5036257;28;20202;-83
2021/05/12 00:17:38;;;;;;;12.85;11.65;;;;;;;;;;5036089;28;20218;-84
2021/05/12 00:20:08;;;;;;;13.07;11.82;;;;;;;;;;5038583;28;20317;-84
2021/05/12 00:22:42;;;;;;;14.05;12.48;;;;;;;;;;5039212;28;20208;-83
2021/05/12 00:25:11;;;;;;;13.45;12.15;;;;;;;;;;5039762;28;20631;-83
2021/05/12 00:27:39;;;;;;;15.18;13.57;;;;;;;;;;5039328;28;20195;-83
2021/05/12 00:30:09;;;;;;;14.98;13.38;;;;;;;;;;5039412;28;20271;-83
2021/05/12 00:32:35;;;;;;;19.45;14.98;;;;;;;;;;5039117;28;20695;-83
2021/05/12 00:35:03;;;;;;;14.00;12.50;;;;;;;;;;5038709;28;20214;-83
2021/05/12 00:37:29;;;;;;;16.33;13.98;;;;;;;;;;5039007;28;20206;-83
2021/05/12 00:39:56;;;;;;;12.48;11.20;;;;;;;;;;5039547;28;20305;-84
2021/05/12 00:42:29;;;;;;;15.88;14.23;;;;;;;;;;5038989;28;20225;-83
2021/05/12 00:44:57;;;;;;;13.75;10.55;;;;;;;;;;5039285;28;20312;-83
2021/05/12 00:47:26;;;;;;;11.40;9.70;;;;;;;;;;5039418;28;20217;-83
2021/05/12 00:49:54;;;;;;;11.07;9.93;;;;;;;;;;5039043;28;20261;-83
2021/05/12 00:52:21;;;;;;;11.25;10.10;;;;;;;;;;5038923;28;20201;-83
2021/05/12 00:54:48;;;;;;;13.02;11.25;;;;;;;;;;5039227;28;20202;-83
2021/05/12 00:57:15;;;;;;;11.40;9.63;;;;;;;;;;5039333;28;20206;-83
2021/05/12 00:59:43;;;;;;;9.00;8.05;;;;;;;;;;5038691;28;20276;-83
2021/05/12 01:02:11;;;;;;;7.95;7.25;;;;;;;;;;5038139;28;20206;-83
2021/05/12 01:04:38;;;;;;;8.85;7.95;;;;;;;;;;5039508;28;20259;-83
2021/05/12 01:07:05;;;;;;;7.60;6.82;;;;;;;;;;5038668;28;20206;-83
2021/05/12 01:09:32;;;;;;;8.82;7.88;;;;;;;;;;5038075;28;20218;-83
2021/05/12 01:11:59;;;;;;;8.65;7.43;;;;;;;;;;5038352;28;20392;-84
2021/05/12 01:14:27;;;;;;;7.15;6.55;;;;;;;;;;5039060;28;20259;-83
2021/05/12 01:16:54;;;;;;;5.07;4.63;;;;;;;;;;5038018;28;20246;-83
2021/05/12 01:19:23;;;;;;;3.63;3.25;;;;;;;;;;5038865;28;20226;-83
2021/05/12 01:21:51;;;;;;;4.75;3.95;;;;;;;;;;5038465;28;20198;-83
2021/05/12 01:24:18;;;;;;;3.50;3.20;;;;;;;;;;5038819;28;20206;-83
2021/05/12 01:26:45;;;;;;;4.10;3.70;;;;;;;;;;5038504;28;20226;-83
2021/05/12 01:29:12;;;;;;;5.75;5.18;;;;;;;;;;5037883;28;20218;-83
2021/05/12 01:31:42;;;;;;;5.22;4.07;;;;;;;;;;5038309;28;20217;-82
2021/05/12 01:34:15;;;;;;;6.40;5.07;;;;;;;;;;5038419;28;20237;-83
2021/05/12 01:36:42;;;;;;;6.22;4.68;;;;;;;;;;5038379;28;20206;-83
2021/05/12 01:39:11;;;;;;;6.70;5.82;;;;;;;;;;5038235;28;20284;-83
2021/05/12 01:41:38;;;;;;;7.20;6.50;;;;;;;;;;5038179;28;20201;-83
2021/05/12 01:44:09;;;;;;;6.07;5.43;;;;;;;;;;5038848;28;20183;-82
2021/05/12 01:46:37;;;;;;;6.30;5.70;;;;;;;;;;5038707;28;20504;-83
2021/05/12 01:49:04;;;;;;;6.55;5.95;;;;;;;;;;5039009;28;20229;-83
2021/05/12 01:51:31;;;;;;;6.93;6.15;;;;;;;;;;5038080;28;20718;-83
2021/05/12 01:53:58;;;;;;;7.47;6.70;;;;;;;;;;5037568;28;20233;-82
2021/05/12 01:56:25;;;;;;;7.03;6.20;;;;;;;;;;5038271;28;20198;-82
2021/05/12 01:58:52;;;;;;;9.60;7.55;;;;;;;;;;5038812;28;20209;-83
2021/05/12 02:01:19;;;;;;;9.32;8.43;;;;;;;;;;5038005;28;20209;-82
2021/05/12 02:03:46;;;;;;;9.00;8.20;;;;;;;;;;5038506;28;20213;-83
2021/05/12 02:06:13;;;;;;;9.02;8.13;;;;;;;;;;5038108;28;20223;-83
2021/05/12 02:08:40;;;;;;;11.13;7.53;;;;;;;;;;5037247;28;20297;-83
2021/05/12 02:11:08;;;;;;;9.63;8.63;;;;;;;;;;5037980;28;20190;-83
2021/05/12 02:13:36;;;;;;;10.30;8.90;;;;;;;;;;5038462;28;20260;-82
2021/05/12 02:16:07;;;;;;;9.27;8.23;;;;;;;;;;5037791;28;20237;-83
2021/05/12 02:18:35;;;;;;;11.93;9.88;;;;;;;;;;5038014;28;20209;-83
2021/05/12 02:21:02;;;;;;;9.90;8.93;;;;;;;;;;5037997;28;20198;-81
2021/05/12 02:23:31;;;;;;;11.70;10.55;;;;;;;;;;5037336;28;20202;-82
2021/05/12 02:25:58;;;;;;;11.13;9.95;;;;;;;;;;5037877;28;20233;-82
2021/05/12 02:28:26;;;;;;;13.05;11.75;;;;;;;;;;5037394;28;20201;-82
2021/05/12 02:30:54;;;;;;;13.00;11.70;;;;;;;;;;5036743;28;20215;-82
2021/05/12 02:33:21;;;;;;;15.18;12.95;;;;;;;;;;5036940;28;20225;-82
2021/05/12 02:35:48;;;;;;;15.52;13.93;;;;;;;;;;5037103;28;20202;-83
2021/05/12 02:38:14;;;;;;;15.07;13.38;;;;;;;;;;5038046;28;20194;-82
2021/05/12 02:40:41;;;;;;;15.90;14.20;;;;;;;;;;5037557;28;20222;-82
2021/05/12 02:43:08;;;;;;;18.55;16.38;;;;;;;;;;5036564;28;20194;-82
2021/05/12 02:45:35;;;;;;;18.58;16.85;;;;;;;;;;5037275;28;20230;-82
2021/05/12 02:48:06;;;;;;;18.30;16.40;;;;;;;;;;5036895;28;20199;-82
2021/05/12 02:50:36;;;;;;;21.23;18.98;;;;;;;;;;5036727;28;20222;-82
2021/05/12 02:53:04;;;;;;;21.30;17.88;;;;;;;;;;5037646;28;20206;-82
2021/05/12 02:55:32;;;;;;;21.17;17.20;;;;;;;;;;5037885;28;20218;-82
2021/05/12 02:58:00;;;;;;;20.27;18.15;;;;;;;;;;5037721;28;20198;-82
2021/05/12 03:00:30;;;;;;;20.92;17.10;;;;;;;;;;5037613;28;20224;-82
2021/05/12 03:02:57;;;;;;;18.33;15.63;;;;;;;;;;5037630;28;20217;-82
2021/05/12 03:05:25;;;;;;;21.83;18.85;;;;;;;;;;5038171;28;20222;-82
2021/05/12 03:07:52;;;;;;;18.98;16.77;;;;;;;;;;5041203;28;20222;-82
2021/05/12 03:10:21;;;;;;;19.92;17.17;;;;;;;;;;5047959;28;20233;-82
2021/05/12 03:12:48;;;;;;;19.83;17.70;;;;;;;;;;5050130;28;20199;-82
2021/05/12 03:15:19;;;;;;;20.80;18.23;;;;;;;;;;5049308;28;20206;-82
2021/05/12 03:17:46;;;;;;;21.42;16.45;;;;;;;;;;5050173;28;20198;-82
2021/05/12 03:20:16;;;;;;;23.33;19.23;;;;;;;;;;5050092;28;20226;-82
2021/05/12 03:22:43;;;;;;;20.95;18.83;;;;;;;;;;5049173;28;20206;-81
2021/05/12 03:25:12;;;;;;;24.13;20.10;;;;;;;;;;5048812;28;20210;-82
2021/05/12 03:27:39;;;;;;;21.17;18.30;;;;;;;;;;5049221;28;20206;-82
2021/05/12 03:30:08;;;;;;;22.52;19.02;;;;;;;;;;5048057;28;20230;-82
2021/05/12 03:32:35;;;;;;;25.17;19.70;;;;;;;;;;5049753;28;20207;-82
2021/05/12 03:35:02;;;;;;;20.80;17.67;;;;;;;;;;5048707;28;20661;-82
2021/05/12 03:37:29;;;;;;;21.48;19.20;;;;;;;;;;5049729;28;20213;-82
2021/05/12 03:39:57;;;;;;;22.35;19.25;;;;;;;;;;5050168;28;20226;-81
2021/05/12 03:42:24;;;;;;;27.17;21.15;;;;;;;;;;5048490;28;20209;-81
2021/05/12 03:44:50;;;;;;;24.02;20.35;;;;;;;;;;5040916;28;20197;-84
2021/05/12 03:47:17;;;;;;;24.80;21.13;;;;;;;;;;5036481;28;20264;-82
2021/05/12 03:49:44;;;;;;;25.25;21.63;;;;;;;;;;5035942;28;20229;-82
2021/05/12 03:52:11;;;;;;;25.90;21.55;;;;;;;;;;5036367;28;20206;-83
2021/05/12 03:54:38;;;;;;;24.50;20.30;;;;;;;;;;5039902;28;20691;-81
2021/05/12 03:57:06;;;;;;;24.13;20.58;;;;;;;;;;5040541;28;20209;-82
2021/05/12 03:59:33;;;;;;;22.52;19.45;;;;;;;;;;5040393;28;20214;-82
2021/05/12 04:02:00;;;;;;;23.05;19.65;;;;;;;;;;5040062;28;20201;-84
2021/05/12 04:04:27;;;;;;;27.88;22.48;;;;;;;;;;5039740;28;20202;-82
2021/05/12 04:06:53;;;;;;;22.13;19.73;;;;;;;;;;5040330;28;20604;-82
2021/05/12 04:09:20;;;;;;;22.05;19.52;;;;;;;;;;5040044;28;20218;-82
2021/05/12 04:11:48;;;;;;;29.50;21.30;;;;;;;;;;5039788;28;20225;-83
2021/05/12 04:14:15;;;;;;;26.33;21.15;;;;;;;;;;5040627;28;20214;-83
2021/05/12 04:16:42;;;;;;;22.88;20.48;;;;;;;;;;5039946;28;20601;-83
2021/05/12 04:19:09;;;;;;;22.23;19.70;;;;;;;;;;5040387;28;20233;-83
2021/05/12 04:21:36;;;;;;;24.05;18.23;;;;;;;;;;5039941;28;20209;-83
2021/05/12 04:24:04;;;;;;;23.92;19.95;;;;;;;;;;5040155;28;20206;-83
2021/05/12 04:26:30;;;;;;;19.70;17.70;;;;;;;;;;5040175;28;20230;-83
2021/05/12 04:28:57;;;;;;;25.55;19.30;;;;;;;;;;5040570;28;20336;-82
2021/05/12 04:31:26;;;;;;;24.67;19.40;;;;;;;;;;5040403;28;20252;-82
2021/05/12 04:33:53;;;;;;;21.67;18.30;;;;;;;;;;5039862;28;20205;-81
2021/05/12 04:36:19;;;;;;;21.85;19.73;;;;;;;;;;5039947;28;20210;-82
2021/05/12 04:38:46;;;;;;;21.45;18.10;;;;;;;;;;5039505;28;20206;-83
2021/05/12 04:41:13;;;;;;;21.17;17.98;;;;;;;;;;5040464;28;20198;-83
2021/05/12 04:43:40;;;;;;;21.80;18.13;;;;;;;;;;5040262;28;20210;-82
2021/05/12 04:46:07;;;;;;;23.00;20.50;;;;;;;;;;5040269;28;20230;-82
2021/05/12 04:48:35;;;;;;;20.27;18.10;;;;;;;;;;5039796;28;20206;-82
2021/05/12 04:51:02;;;;;;;19.33;17.35;;;;;;;;;;5040079;28;20209;-83
2021/05/12 04:53:28;;;;;;;20.73;18.52;;;;;;;;;;5040241;28;20202;-83
2021/05/12 04:55:55;;;;;;;19.83;17.42;;;;;;;;;;5040207;28;20205;-82
2021/05/12 04:58:22;;;;;;;20.13;18.00;;;;;;;;;;5040046;28;20620;-83
2021/05/12 05:00:50;;;;;;;19.25;17.25;;;;;;;;;;5039782;28;20233;-82
2021/05/12 05:03:17;;;;;;;21.88;19.60;;;;;;;;;;5039280;28;20212;-82
2021/05/12 05:05:44;;;;;;;19.08;17.08;;;;;;;;;;5038781;28;20577;-82
2021/05/12 05:08:12;;;;;;;19.85;17.75;;;;;;;;;;5040039;28;20207;-83
2021/05/12 05:10:39;;;;;;;20.25;16.17;;;;;;;;;;5039251;28;20218;-83
2021/05/12 05:13:06;;;;;;;20.02;17.85;;;;;;;;;;5039513;28;20194;-82
2021/05/12 05:15:33;;;;;;;18.75;16.90;;;;;;;;;;5038982;28;20615;-82
2021/05/12 05:18:00;;;;;;;21.27;19.00;;;;;;;;;;5038786;28;20584;-82
2021/05/12 05:20:29;;;;;;;18.67;16.77;;;;;;;;;;5039069;28;20218;-82
2021/05/12 05:22:57;;;;;;;20.58;18.58;;;;;;;;;;5038547;28;20729;-82
2021/05/12 05:25:24;;;;;;;19.08;17.15;;;;;;;;;;5039281;28;20210;-82
2021/05/12 05:27:51;;;;;;;19.75;17.75;;;;;;;;;;5038718;28;20277;-82
2021/05/12 05:30:18;;;;;;;19.63;17.65;;;;;;;;;;5039290;28;20223;-81
2021/05/12 05:32:45;;;;;;;19.73;17.67;;;;;;;;;;5038713;28;20206;-83
2021/05/12 05:35:13;;;;;;;20.40;18.25;;;;;;;;;;5038497;28;20202;-82
2021/05/12 05:37:39;;;;;;;18.77;16.60;;;;;;;;;;5038206;28;20217;-83
2021/05/12 05:40:09;;;;;;;21.42;19.20;;;;;;;;;;5038445;28;20633;-83
2021/05/12 05:42:36;;;;;;;20.52;18.42;;;;;;;;;;5037861;28;20206;-82
2021/05/12 05:45:07;;;;;;;18.08;16.27;;;;;;;;;;5036815;28;20202;-82
2021/05/12 05:47:34;;;;;;;19.40;17.42;;;;;;;;;;5037801;28;20218;-82
2021/05/12 05:50:01;;;;;;;18.75;16.60;;;;;;;;;;5037995;28;20585;-82
2021/05/12 05:52:28;;;;;;;19.30;17.08;;;;;;;;;;5038547;28;20680;-83
2021/05/12 05:54:55;;;;;;;20.70;18.70;;;;;;;;;;5038946;28;20206;-83
2021/05/12 05:57:22;;;;;;;21.92;19.60;;;;;;;;;;5038472;28;20202;-84
2021/05/12 05:59:49;;;;;;;23.67;20.58;;;;;;;;;;5038264;28;20237;-81
2021/05/12 06:02:16;;;;;;;21.92;19.63;;;;;;;;;;5038230;28;20209;-82
2021/05/12 06:04:43;;;;;;;23.15;20.02;;;;;;;;;;5037765;28;20209;-81
2021/05/12 06:07:09;;;;;;;21.38;19.33;;;;;;;;;;5038214;28;20247;-82
2021/05/12 06:09:36;;;;;;;20.05;18.05;;;;;;;;;;5039308;28;20226;-82
2021/05/12 06:12:03;;;;;;;24.73;21.13;;;;;;;;;;5038736;28;20579;-82
2021/05/12 06:14:31;;;;;;;23.67;19.83;;;;;;;;;;5036664;28;20207;-83
2021/05/12 06:16:58;;;;;;;25.20;22.67;;;;;;;;;;5035946;28;20226;-83
2021/05/12 06:19:25;;;;;;;22.50;20.10;;;;;;;;;;5037272;28;20230;-82
2021/05/12 06:21:52;;;;;;;22.98;20.50;;;;;;;;;;5038494;28;20210;-83
2021/05/12 06:24:19;;;;;;;27.02;23.02;;;;;;;;;;5037670;28;20213;-83
2021/05/12 06:26:48;;;;;;;20.90;18.10;;;;;;;;;;5037974;28;20222;-83
2021/05/12 06:29:15;;;;;;;25.60;21.70;;;;;;;;;;5036669;28;20230;-83
2021/05/12 06:31:42;;;;;;;24.92;22.23;;;;;;;;;;5036269;28;20198;-83
2021/05/12 06:34:09;;;;;;;26.83;23.95;;;;;;;;;;5035163;28;20206;-83
2021/05/12 06:36:36;;;;;;;26.85;24.08;;;;;;;;;;5034358;28;20240;-81
2021/05/12 06:39:03;;;;;;;23.20;20.73;;;;;;;;;;5034299;28;20226;-84
2021/05/12 06:41:31;;;;;;;28.38;24.58;;;;;;;;;;5034839;28;20202;-82
2021/05/12 06:43:58;;;;;;;25.48;22.00;;;;;;;;;;5034262;28;20183;-82
2021/05/12 06:46:25;;;;;;;24.58;21.95;;;;;;;;;;5033517;28;20210;-82
2021/05/12 06:48:53;;;;;;;23.80;21.25;;;;;;;;;;5033832;28;20252;-82
2021/05/12 06:51:20;;;;;;;26.77;24.00;;;;;;;;;;5033665;28;20206;-82
2021/05/12 06:53:47;;;;;;;27.27;24.33;;;;;;;;;;5033147;28;20205;-82
2021/05/12 06:56:14;;;;;;;23.52;21.17;;;;;;;;;;5033649;28;20206;-82
2021/05/12 06:58:42;;;;;;;25.90;23.23;;;;;;;;;;5032878;28;20191;-82
2021/05/12 07:01:09;;;;;;;24.48;21.90;;;;;;;;;;5032885;28;20206;-82
2021/05/12 07:03:35;;;;;;;25.70;22.98;;;;;;;;;;5033621;28;20202;-83
2021/05/12 07:06:04;;;;;;;25.40;22.80;;;;;;;;;;5033387;28;20547;-82
2021/05/12 07:08:32;;;;;;;25.05;21.92;;;;;;;;;;5032608;28;20226;-82
2021/05/12 07:10:59;;;;;;;23.38;20.95;;;;;;;;;;5033417;28;20613;-82
2021/05/12 07:13:25;;;;;;;26.67;23.83;;;;;;;;;;5034103;28;20178;-82
2021/05/12 07:15:52;;;;;;;22.30;20.08;;;;;;;;;;5033313;28;20586;-82
2021/05/12 07:18:19;;;;;;;22.38;20.08;;;;;;;;;;5033803;28;20209;-82
2021/05/12 07:20:46;;;;;;;22.95;20.52;;;;;;;;;;5033866;28;20218;-82
2021/05/12 07:23:19;;;;;;;24.83;20.40;;;;;;;;;;5033504;28;20198;-82
2021/05/12 07:25:47;;;;;;;25.35;21.27;;;;;;;;;;5033048;28;20182;-82
2021/05/12 07:28:14;;;;;;;22.08;19.75;;;;;;;;;;5033362;28;20214;-82
2021/05/12 07:30:42;;;;;;;21.85;19.00;;;;;;;;;;5033263;28;20225;-83
2021/05/12 07:33:09;;;;;;;21.88;19.45;;;;;;;;;;5033258;28;20206;-82
2021/05/12 07:35:36;;;;;;;23.45;21.00;;;;;;;;;;5033908;28;20604;-82
2021/05/12 07:38:03;;;;;;;22.80;20.40;;;;;;;;;;5033179;28;20706;-83
2021/05/12 07:40:33;;;;;;;23.15;20.65;;;;;;;;;;5033416;28;20226;-82
2021/05/12 07:43:02;;;;;;;23.63;21.05;;;;;;;;;;5033683;28;20564;-82
2021/05/12 07:45:29;;;;;;;21.70;19.30;;;;;;;;;;5033401;28;20195;-82
2021/05/12 07:47:56;;;;;;;21.75;18.13;;;;;;;;;;5033120;28;20211;-82
2021/05/12 07:50:23;;;;;;;24.90;21.67;;;;;;;;;;5032900;28;20712;-82
2021/05/12 07:52:51;;;;;;;23.58;21.10;;;;;;;;;;5031857;28;20240;-82
2021/05/12 07:55:18;;;;;;;21.15;18.95;;;;;;;;;;5031686;28;20203;-83
2021/05/12 07:57:45;;;;;;;20.30;18.02;;;;;;;;;;5034773;28;20179;-82
2021/05/12 08:00:14;;;;;;;21.27;18.98;;;;;;;;;;5035193;28;20226;-82
2021/05/12 08:02:41;;;;;;;18.65;15.90;;;;;;;;;;5035221;28;20210;-83
2021/05/12 08:05:09;;;;;;;21.52;19.35;;;;;;;;;;5035674;28;20178;-83
2021/05/12 08:07:37;;;;;;;25.70;19.35;;;;;;;;;;5034780;28;20210;-82
2021/05/12 08:10:06;;;;;;;19.60;17.60;;;;;;;;;;5034196;28;20747;-83
2021/05/12 08:12:33;;;;;;;20.60;17.73;;;;;;;;;;5034026;28;20199;-83
2021/05/12 08:15:01;;;;;;;19.25;17.30;;;;;;;;;;5035613;28;20183;-83
2021/05/12 08:17:28;;;;;;;19.10;16.15;;;;;;;;;;5033333;28;20558;-82
2021/05/12 08:19:56;;;;;;;19.55;17.60;;;;;;;;;;5035577;28;20215;-82
2021/05/12 08:22:23;;;;;;;19.98;17.88;;;;;;;;;;5035670;28;20187;-83
2021/05/12 08:24:50;;;;;;;19.23;17.17;;;;;;;;;;5034086;28;20205;-82
2021/05/12 08:27:17;;;;;;;19.92;17.88;;;;;;;;;;5035163;28;20182;-82
2021/05/12 08:29:44;;;;;;;20.20;18.08;;;;;;;;;;5035683;28;20226;-83
2021/05/12 08:32:15;;;;;;;18.70;16.73;;;;;;;;;;5035218;28;20415;-84
2021/05/12 08:34:42;;;;;;;24.60;19.50;;;;;;;;;;5035420;28;20222;-84
2021/05/12 08:37:09;;;;;;;21.08;18.80;;;;;;;;;;5035542;28;20175;-84
2021/05/12 08:39:36;;;;;;;18.70;16.67;;;;;;;;;;5035579;28;20226;-83
2021/05/12 08:42:03;;;;;;;19.17;16.50;;;;;;;;;;5039155;28;20189;-82
2021/05/12 08:44:33;;;;;;;18.63;16.58;;;;;;;;;;5039300;28;20194;-82
2021/05/12 08:47:01;;;;;;;19.10;17.00;;;;;;;;;;5038383;28;20186;-82
2021/05/12 08:49:29;;;;;;;17.60;15.85;;;;;;;;;;5038595;28;20237;-84
2021/05/12 08:51:56;;;;;;;16.52;14.93;;;;;;;;;;5038556;28;20194;-84
2021/05/12 08:54:23;;;;;;;16.85;15.13;;;;;;;;;;5038598;28;20580;-84
2021/05/12 08:56:50;;;;;;;17.55;15.85;;;;;;;;;;5039033;28;20198;-86
2021/05/12 08:59:17;;;;;;;19.35;17.38;;;;;;;;;;5038719;28;20226;-81
2021/05/12 09:01:44;;;;;;;16.45;14.80;;;;;;;;;;5038622;28;20198;-82
2021/05/12 09:04:11;;;;;;;16.52;14.82;;;;;;;;;;5038948;28;20233;-84
2021/05/12 09:06:40;;;;;;;15.75;14.18;;;;;;;;;;5039073;28;20217;-86
2021/05/12 09:09:08;;;;;;;14.57;12.88;;;;;;;;;;5038968;28;20226;-87
2021/05/12 09:11:35;;;;;;;16.58;14.82;;;;;;;;;;5038981;28;20206;-86
2021/05/12 09:14:03;;;;;;;13.10;11.85;;;;;;;;;;5039727;28;20216;-85
2021/05/12 09:16:31;;;;;;;12.82;11.32;;;;;;;;;;5038918;28;20241;-84
2021/05/12 09:19:05;;;;;;;13.00;11.60;;;;;;;;;;5039501;28;20254;-85
2021/05/12 09:21:52;;;;;;;13.90;12.20;;;;;;;;;;5039286;28;20210;-84
2021/05/12 09:24:21;;;;;;;13.65;12.35;;;;;;;;;;5038494;28;20201;-85
2021/05/12 09:26:48;;;;;;;13.38;12.23;;;;;;;;;;5038232;28;20597;-84
2021/05/12 09:29:26;;;;;;;16.13;14.57;;;;;;;;;;5038728;28;20257;-85
2021/05/12 09:32:01;;;;;;;15.18;13.50;;;;;;;;;;5038560;28;20194;-84
2021/05/12 09:34:28;;;;;;;15.57;14.10;;;;;;;;;;5037992;28;20205;-85
2021/05/12 09:36:56;;;;;;;15.90;14.25;;;;;;;;;;5038052;28;20206;-85
2021/05/12 09:39:23;;;;;;;17.08;14.48;;;;;;;;;;5037993;28;20234;-84
2021/05/12 09:41:49;;;;;;;15.95;14.25;;;;;;;;;;5038859;28;20206;-84
2021/05/12 09:44:29;;;;;;;16.52;14.82;;;;;;;;;;5038419;28;20581;-84
2021/05/12 09:47:02;;;;;;;14.73;13.23;;;;;;;;;;5038595;28;20701;-85
2021/05/12 09:49:30;;;;;;;15.45;12.85;;;;;;;;;;5038055;28;20393;-87
2021/05/12 09:51:58;;;;;;;14.18;12.25;;;;;;;;;;5038664;28;20203;-85
2021/05/12 09:54:28;;;;;;;17.42;13.43;;;;;;;;;;5038974;28;20205;-85
2021/05/12 09:56:57;;;;;;;15.00;13.52;;;;;;;;;;5038649;28;20221;-84
2021/05/12 09:59:26;;;;;;;13.27;12.07;;;;;;;;;;5037886;28;20214;-85
2021/05/12 10:01:55;;;;;;;12.40;11.05;;;;;;;;;;5037367;28;20202;-85
2021/05/12 10:04:36;;;;;;;11.80;10.60;;;;;;;;;;5037218;28;20202;-85
2021/05/12 10:07:14;;;;;;;11.60;10.50;;;;;;;;;;5037867;28;20206;-85
2021/05/12 10:09:42;;;;;;;13.10;11.50;;;;;;;;;;5037640;28;20229;-84
2021/05/12 10:12:12;;;;;;;11.63;10.50;;;;;;;;;;5037233;28;20261;-84
2021/05/12 10:14:42;;;;;;;8.90;8.00;;;;;;;;;;5037109;28;20692;-85
2021/05/12 10:17:13;;;;;;;9.40;8.60;;;;;;;;;;5037424;28;20234;-84
2021/05/12 10:19:41;;;;;;;9.48;8.48;;;;;;;;;;5037371;28;20229;-84
2021/05/12 10:22:12;;;;;;;10.73;9.73;;;;;;;;;;5037517;28;20221;-85
2021/05/12 10:24:39;;;;;;;9.10;8.20;;;;;;;;;;5036959;28;20669;-83
2021/05/12 10:27:12;;;;;;;10.30;8.73;;;;;;;;;;5037624;28;20221;-85
2021/05/12 10:29:42;;;;;;;9.60;8.70;;;;;;;;;;5037058;28;20226;-84
2021/05/12 10:32:25;;;;;;;12.05;8.15;;;;;;;;;;5036709;28;20575;-84
2021/05/12 10:35:10;;;;;;;9.82;8.77;;;;;;;;;;5037207;28;20645;-84
2021/05/12 10:37:39;;;;;;;8.40;7.60;;;;;;;;;;5037151;28;20202;-84
2021/05/12 10:40:15;;;;;;;9.57;7.05;;;;;;;;;;5037070;28;20712;-86
2021/05/12 10:43:02;;;;;;;8.27;7.55;;;;;;;;;;5037316;28;20644;-84
2021/05/12 10:45:56;;;;;;;7.53;6.75;;;;;;;;;;5037392;28;20213;-85
2021/05/12 10:48:40;;;;;;;8.82;6.82;;;;;;;;;;5033159;28;20229;-84
2021/05/12 10:51:10;;;;;;;12.18;9.40;;;;;;;;;;5036633;28;20252;-84
2021/05/12 10:53:45;;;;;;;8.55;7.72;;;;;;;;;;5037239;28;20202;-85
2021/05/12 10:56:14;;;;;;;9.95;8.95;;;;;;;;;;5037114;28;20194;-85
2021/05/12 10:58:56;;;;;;;12.05;9.77;;;;;;;;;;5036638;28;20198;-84
2021/05/12 11:01:23;;;;;;;10.05;8.25;;;;;;;;;;5037116;28;20256;-83
2021/05/12 11:04:15;;;;;;;8.20;7.40;;;;;;;;;;5036633;28;20202;-84
2021/05/12 11:06:59;;;;;;;7.93;6.75;;;;;;;;;;5036944;28;20202;-84
2021/05/12 11:09:49;;;;;;;7.47;5.78;;;;;;;;;;5036290;28;20222;-84
2021/05/12 11:12:23;;;;;;;7.70;6.97;;;;;;;;;;5036108;28;20242;-82
2021/05/12 11:15:00;;;;;;;11.48;8.00;;;;;;;;;;5036184;28;20198;-84
2021/05/12 11:17:52;;;;;;;8.25;7.40;;;;;;;;;;5016740;28;20237;-85
2021/05/12 11:20:25;;;;;;;6.72;6.13;;;;;;;;;;5016675;28;20226;-85
2021/05/12 11:22:55;;;;;;;7.80;6.47;;;;;;;;;;5016658;28;20241;-84
2021/05/12 11:25:36;;;;;;;7.43;6.72;;;;;;;;;;5017023;28;20199;-87
2021/05/12 11:33:40;;;;;;;8.95;8.15;;;;;;;;;;5016871;28;20245;-85
2021/05/12 11:36:10;;;;;;;8.23;7.45;;;;;;;;;;5016318;28;20694;-85
2021/05/12 11:38:39;;;;;;;6.90;6.20;;;;;;;;;;5016344;28;20700;-86
2021/05/12 11:41:09;;;;;;;7.72;7.00;;;;;;;;;;5016090;28;20282;-83
2021/05/12 11:43:37;;;;;;;8.10;6.65;;;;;;;;;;5016502;28;20265;-84
2021/05/12 11:46:15;;;;;;;14.18;8.20;;;;;;;;;;5016317;28;20303;-84
2021/05/12 11:48:44;;;;;;;6.80;6.15;;;;;;;;;;5017049;28;20223;-84
2021/05/12 11:51:16;;;;;;;6.63;5.78;;;;;;;;;;5016684;28;20235;-85
2021/05/12 11:53:44;;;;;;;16.27;8.88;;;;;;;;;;5016475;28;20673;-84
2021/05/12 11:56:12;;;;;;;7.13;6.18;;;;;;;;;;5016306;28;20226;-84
2021/05/12 11:58:41;;;;;;;8.55;6.68;;;;;;;;;;5017049;28;20231;-85
2021/05/12 12:01:12;;;;;;;6.63;5.80;;;;;;;;;;5016068;28;20665;-83
2021/05/12 12:03:45;;;;;;;5.70;5.07;;;;;;;;;;5016552;28;20203;-85
2021/05/12 12:06:15;;;;;;;7.03;5.95;;;;;;;;;;5016256;28;20206;-85
2021/05/12 12:08:42;;;;;;;9.05;5.15;;;;;;;;;;5015673;28;20222;-84
2021/05/12 12:11:13;;;;;;;5.50;5.00;;;;;;;;;;5015875;28;20207;-84
2021/05/12 12:13:41;;;;;;;5.30;4.80;;;;;;;;;;5016448;28;20210;-85
2021/05/12 12:16:09;;;;;;;5.38;4.70;;;;;;;;;;5027904;28;20607;-84
2021/05/12 12:18:39;;;;;;;6.32;5.70;;;;;;;;;;5039318;28;20198;-84
2021/05/12 12:21:06;;;;;;;4.63;4.20;;;;;;;;;;5039760;28;20229;-84
2021/05/12 12:23:37;;;;;;;4.55;4.18;;;;;;;;;;5039132;28;20601;-84
2021/05/12 12:26:14;;;;;;;4.35;3.85;;;;;;;;;;5039354;28;20202;-84
2021/05/12 12:28:44;;;;;;;7.38;4.75;;;;;;;;;;5039706;28;20833;-86
2021/05/12 12:31:20;;;;;;;4.40;4.00;;;;;;;;;;5037082;28;20205;-83
2021/05/12 12:34:19;;;;;;;6.85;4.18;;;;;;;;;;5036309;28;20210;-83
2021/05/12 12:37:06;;;;;;;4.10;3.70;;;;;;;;;;5038723;28;20198;-84
2021/05/12 12:39:50;;;;;;;4.72;4.07;;;;;;;;;;5039001;28;20222;-84
2021/05/12 12:42:23;;;;;;;4.00;3.60;;;;;;;;;;5039240;28;20198;-85
2021/05/12 12:44:50;;;;;;;5.90;3.65;;;;;;;;;;5038646;28;20676;-85
2021/05/12 12:47:20;;;;;;;4.03;3.63;;;;;;;;;;5039050;28;20207;-86
2021/05/12 12:49:54;;;;;;;3.88;3.58;;;;;;;;;;5038857;28;20230;-84
2021/05/12 12:52:23;;;;;;;4.40;3.80;;;;;;;;;;5038775;28;20202;-84
2021/05/12 12:54:58;;;;;;;3.75;3.33;;;;;;;;;;5038576;28;20831;-84
2021/05/12 12:57:38;;;;;;;6.40;4.57;;;;;;;;;;5038857;28;20197;-84
2021/05/12 13:00:23;;;;;;;4.50;3.90;;;;;;;;;;5038482;28;20696;-85
2021/05/12 13:03:02;;;;;;;5.65;3.83;;;;;;;;;;5038694;28;20210;-84
2021/05/12 13:05:39;;;;;;;7.30;4.10;;;;;;;;;;5038733;28;20206;-84
2021/05/12 13:08:21;;;;;;;3.90;3.55;;;;;;;;;;5037217;28;20205;-85
2021/05/12 13:10:49;;;;;;;4.28;3.85;;;;;;;;;;5038047;28;20226;-83
2021/05/12 13:13:25;;;;;;;5.47;3.50;;;;;;;;;;5038064;28;20213;-84
2021/05/12 13:15:53;;;;;;;6.53;4.13;;;;;;;;;;5038194;28;20712;-84
2021/05/12 13:18:29;;;;;;;4.53;3.85;;;;;;;;;;5038240;28;20584;-84
2021/05/12 13:20:59;;;;;;;4.00;3.47;;;;;;;;;;5038225;28;20233;-84
2021/05/12 13:23:28;;;;;;;4.28;3.40;;;;;;;;;;5038543;28;20204;-85
2021/05/12 13:25:57;;;;;;;5.28;4.70;;;;;;;;;;5038305;28;20198;-85
2021/05/12 13:28:28;;;;;;;5.13;4.40;;;;;;;;;;5038432;28;20286;-84
2021/05/12 13:30:57;;;;;;;5.45;3.70;;;;;;;;;;5038089;28;20685;-84
2021/05/12 13:33:26;;;;;;;5.45;4.53;;;;;;;;;;5038055;28;20225;-85
2021/05/12 13:35:54;;;;;;;5.45;4.25;;;;;;;;;;5038303;28;20288;-85
2021/05/12 13:38:21;;;;;;;5.72;4.40;;;;;;;;;;5038308;28;20236;-86
2021/05/12 13:40:48;;;;;;;4.65;4.07;;;;;;;;;;5038298;28;20317;-84
2021/05/12 13:43:16;;;;;;;5.22;4.72;;;;;;;;;;5037850;28;20206;-84
2021/05/12 13:45:43;;;;;;;6.20;4.15;;;;;;;;;;5038265;28;20190;-85
2021/05/12 13:48:12;;;;;;;4.30;3.83;;;;;;;;;;5038439;28;20210;-83
2021/05/12 13:50:41;;;;;;;4.45;3.83;;;;;;;;;;5037885;28;20269;-83
2021/05/12 13:53:12;;;;;;;4.85;4.35;;;;;;;;;;5038100;28;20601;-85
2021/05/12 13:55:48;;;;;;;4.72;4.32;;;;;;;;;;5037773;28;20215;-84
2021/05/12 13:58:36;;;;;;;4.97;4.30;;;;;;;;;;5038239;28;20256;-85
2021/05/12 14:03:55;;;;;;;5.63;4.95;;;;;;;;;;5038061;28;20225;-85
2021/05/12 14:06:28;;;;;;;5.03;4.55;;;;;;;;;;5037599;28;20248;-84
2021/05/12 14:08:57;;;;;;;4.22;3.83;;;;;;;;;;5037401;28;20202;-84
2021/05/12 14:11:24;;;;;;;6.20;4.22;;;;;;;;;;5037727;28;20637;-84
2021/05/12 14:13:59;;;;;;;5.40;4.10;;;;;;;;;;5037552;28;20217;-84
2021/05/12 14:16:39;;;;;;;4.57;4.18;;;;;;;;;;5036615;28;20226;-83
2021/05/12 14:19:06;;;;;;;5.93;4.78;;;;;;;;;;5037102;28;20252;-83
2021/05/12 14:21:33;;;;;;;4.90;4.18;;;;;;;;;;5037609;28;20201;-85
2021/05/12 14:24:00;;;;;;;4.07;3.78;;;;;;;;;;5037079;28;20205;-83
2021/05/12 14:26:27;;;;;;;6.43;4.57;;;;;;;;;;5037001;28;20202;-84
2021/05/12 14:28:55;;;;;;;6.70;5.13;;;;;;;;;;5037364;28;20218;-84
2021/05/12 14:31:23;;;;;;;4.18;3.78;;;;;;;;;;5036581;28;20221;-85
2021/05/12 14:33:51;;;;;;;7.20;4.93;;;;;;;;;;5037763;28;20206;-84
2021/05/12 14:36:18;;;;;;;5.18;4.70;;;;;;;;;;5037127;28;20649;-84
2021/05/12 14:38:45;;;;;;;6.22;4.57;;;;;;;;;;5035789;28;20202;-84
2021/05/12 14:41:12;;;;;;;5.35;4.80;;;;;;;;;;5036806;28;20206;-85
2021/05/12 14:43:40;;;;;;;5.78;5.13;;;;;;;;;;5036733;28;20217;-84
2021/05/12 14:46:07;;;;;;;3.97;3.67;;;;;;;;;;5037241;28;20202;-84